sensor_id;sensor_type;location;lat;lon;timestamp;pressure;altitude;pressure_sealevel;temperature;humidity
35519;BME280;21627;48.216;16.482;2023-04-05T00:00:37;100437.00;;;-0.90;64.05
35519;BME280;21627;48.216;16.482;2023-04-05T00:03:05;100446.88;;;-0.94;64.63
35519;BME280;21627;48.216;16.482;2023-04-05T00:05:32;100445.41;;;-0.91;64.67
35519;BME280;21627;48.216;16.482;2023-04-05T00:08:01;100441.53;;;-0.99;64.32
35519;BME280;21627;48.216;16.482;2023-04-05T00:10:30;100427.00;;;-1.01;64.27
35519;BME280;21627;48.216;16.482;2023-04-05T00:12:57;100429.63;;;-1.00;64.25
35519;BME280;21627;48.216;16.482;2023-04-05T00:15:27;100434.44;;;-1.04;64.10
35519;BME280;21627;48.216;16.482;2023-04-05T00:17:55;100433.47;;;-1.06;64.35
35519;BME280;21627;48.216;16.482;2023-04-05T00:20:22;100423.16;;;-1.10;64.86
35519;BME280;21627;48.216;16.482;2023-04-05T00:22:49;100396.75;;;-1.28;65.42
35519;BME280;21627;48.216;16.482;2023-04-05T00:25:17;100434.28;;;-1.07;65.41
35519;BME280;21627;48.216;16.482;2023-04-05T00:27:44;100428.94;;;-1.12;65.22
35519;BME280;21627;48.216;16.482;2023-04-05T00:30:12;100432.50;;;-1.09;65.32
35519;BME280;21627;48.216;16.482;2023-04-05T00:32:40;100420.34;;;-1.14;65.89
35519;BME280;21627;48.216;16.482;2023-04-05T00:35:08;100424.22;;;-1.21;65.85
35519;BME280;21627;48.216;16.482;2023-04-05T00:37:35;100423.16;;;-1.24;66.22
35519;BME280;21627;48.216;16.482;2023-04-05T00:40:03;100415.38;;;-1.27;66.46
35519;BME280;21627;48.216;16.482;2023-04-05T00:42:30;100414.22;;;-1.33;66.78
35519;BME280;21627;48.216;16.482;2023-04-05T00:44:58;100416.38;;;-1.39;67.07
35519;BME280;21627;48.216;16.482;2023-04-05T00:47:25;100420.69;;;-1.38;66.98
35519;BME280;21627;48.216;16.482;2023-04-05T00:49:52;100426.63;;;-1.37;66.25
35519;BME280;21627;48.216;16.482;2023-04-05T00:52:19;100417.19;;;-1.40;66.76
35519;BME280;21627;48.216;16.482;2023-04-05T00:54:49;100415.78;;;-1.35;66.33
35519;BME280;21627;48.216;16.482;2023-04-05T00:57:17;100418.16;;;-1.38;66.56
35519;BME280;21627;48.216;16.482;2023-04-05T00:59:44;100416.31;;;-1.40;66.87
35519;BME280;21627;48.216;16.482;2023-04-05T01:02:44;100417.19;;;-1.40;66.36
35519;BME280;21627;48.216;16.482;2023-04-05T01:10:45;100419.19;;;-1.49;67.02
35519;BME280;21627;48.216;16.482;2023-04-05T01:13:15;100411.91;;;-1.58;67.84
35519;BME280;21627;48.216;16.482;2023-04-05T01:15:43;100413.16;;;-1.51;67.36
35519;BME280;21627;48.216;16.482;2023-04-05T01:18:12;100411.22;;;-1.55;67.67
35519;BME280;21627;48.216;16.482;2023-04-05T01:20:51;100420.84;;;-1.49;67.55
35519;BME280;21627;48.216;16.482;2023-04-05T01:26:44;100412.88;;;-1.56;67.78
35519;BME280;21627;48.216;16.482;2023-04-05T01:35:06;100410.06;;;-1.60;67.15
35519;BME280;21627;48.216;16.482;2023-04-05T01:37:37;100404.72;;;-1.65;68.08
35519;BME280;21627;48.216;16.482;2023-04-05T01:40:05;100402.47;;;-1.60;67.61
35519;BME280;21627;48.216;16.482;2023-04-05T01:42:34;100395.09;;;-1.70;67.80
35519;BME280;21627;48.216;16.482;2023-04-05T01:45:02;100383.31;;;-1.70;67.80
35519;BME280;21627;48.216;16.482;2023-04-05T01:47:29;100401.16;;;-1.68;68.02
35519;BME280;21627;48.216;16.482;2023-04-05T01:49:56;100394.66;;;-1.78;68.21
35519;BME280;21627;48.216;16.482;2023-04-05T01:52:23;100395.69;;;-1.75;68.99
35519;BME280;21627;48.216;16.482;2023-04-05T01:54:50;100391.44;;;-1.76;68.25
35519;BME280;21627;48.216;16.482;2023-04-05T01:57:17;100407.78;;;-1.70;68.60
35519;BME280;21627;48.216;16.482;2023-04-05T01:59:45;100397.38;;;-1.75;68.88
35519;BME280;21627;48.216;16.482;2023-04-05T02:02:12;100402.25;;;-1.78;68.93
35519;BME280;21627;48.216;16.482;2023-04-05T02:04:39;100401.75;;;-1.72;69.10
35519;BME280;21627;48.216;16.482;2023-04-05T02:07:06;100397.38;;;-1.75;69.21
35519;BME280;21627;48.216;16.482;2023-04-05T02:09:33;100411.59;;;-1.77;69.61
35519;BME280;21627;48.216;16.482;2023-04-05T02:12:01;100408.47;;;-1.73;68.43
35519;BME280;21627;48.216;16.482;2023-04-05T02:14:28;100395.53;;;-1.78;68.22
35519;BME280;21627;48.216;16.482;2023-04-05T02:16:55;100402.88;;;-1.67;67.88
35519;BME280;21627;48.216;16.482;2023-04-05T02:19:22;100407.69;;;-1.72;68.33
35519;BME280;21627;48.216;16.482;2023-04-05T02:21:50;100391.03;;;-1.82;68.44
35519;BME280;21627;48.216;16.482;2023-04-05T02:24:19;100396.13;;;-1.82;69.18
35519;BME280;21627;48.216;16.482;2023-04-05T02:26:47;100402.09;;;-1.81;68.81
35519;BME280;21627;48.216;16.482;2023-04-05T02:29:14;100397.97;;;-1.79;68.53
35519;BME280;21627;48.216;16.482;2023-04-05T02:31:41;100395.94;;;-1.85;69.13
35519;BME280;21627;48.216;16.482;2023-04-05T02:34:09;100383.88;;;-1.89;69.21
35519;BME280;21627;48.216;16.482;2023-04-05T02:36:37;100390.59;;;-1.89;69.88
35519;BME280;21627;48.216;16.482;2023-04-05T02:39:04;100397.94;;;-1.94;69.73
35519;BME280;21627;48.216;16.482;2023-04-05T02:41:31;100390.94;;;-1.98;70.17
35519;BME280;21627;48.216;16.482;2023-04-05T02:43:59;100394.28;;;-1.84;69.20
35519;BME280;21627;48.216;16.482;2023-04-05T02:46:26;100393.06;;;-1.91;69.25
35519;BME280;21627;48.216;16.482;2023-04-05T02:48:53;100381.56;;;-1.99;69.77
35519;BME280;21627;48.216;16.482;2023-04-05T02:51:20;100389.25;;;-1.98;70.61
35519;BME280;21627;48.216;16.482;2023-04-05T02:53:47;100385.16;;;-1.96;69.68
35519;BME280;21627;48.216;16.482;2023-04-05T02:56:14;100373.50;;;-2.07;70.39
35519;BME280;21627;48.216;16.482;2023-04-05T02:58:41;100381.84;;;-1.94;70.28
35519;BME280;21627;48.216;16.482;2023-04-05T03:01:09;100385.06;;;-1.97;70.37
35519;BME280;21627;48.216;16.482;2023-04-05T03:03:36;100385.00;;;-1.99;70.41
35519;BME280;21627;48.216;16.482;2023-04-05T03:06:05;100383.16;;;-2.01;70.10
35519;BME280;21627;48.216;16.482;2023-04-05T03:08:41;100379.63;;;-2.03;70.22
35519;BME280;21627;48.216;16.482;2023-04-05T03:11:12;100381.31;;;-2.04;70.47
35519;BME280;21627;48.216;16.482;2023-04-05T03:13:40;100382.06;;;-2.05;70.77
35519;BME280;21627;48.216;16.482;2023-04-05T03:16:07;100374.88;;;-2.12;71.04
35519;BME280;21627;48.216;16.482;2023-04-05T03:18:34;100383.63;;;-2.07;70.52
35519;BME280;21627;48.216;16.482;2023-04-05T03:21:01;100373.16;;;-2.13;71.12
35519;BME280;21627;48.216;16.482;2023-04-05T03:23:31;100375.78;;;-2.11;70.77
35519;BME280;21627;48.216;16.482;2023-04-05T03:26:00;100383.56;;;-2.08;70.92
35519;BME280;21627;48.216;16.482;2023-04-05T03:28:29;100384.31;;;-2.09;70.89
35519;BME280;21627;48.216;16.482;2023-04-05T03:30:58;100374.88;;;-2.12;70.93
35519;BME280;21627;48.216;16.482;2023-04-05T03:33:25;100376.19;;;-2.19;71.03
35519;BME280;21627;48.216;16.482;2023-04-05T03:35:52;100374.28;;;-2.08;70.83
35519;BME280;21627;48.216;16.482;2023-04-05T03:38:19;100388.28;;;-2.00;69.93
35519;BME280;21627;48.216;16.482;2023-04-05T03:40:47;100384.03;;;-2.01;70.53
35519;BME280;21627;48.216;16.482;2023-04-05T03:43:14;100382.88;;;-2.06;70.97
35519;BME280;21627;48.216;16.482;2023-04-05T03:45:41;100390.81;;;-2.00;70.18
35519;BME280;21627;48.216;16.482;2023-04-05T03:48:09;100367.91;;;-2.16;70.56
35519;BME280;21627;48.216;16.482;2023-04-05T03:50:36;100390.06;;;-2.12;71.08
35519;BME280;21627;48.216;16.482;2023-04-05T03:53:03;100388.25;;;-2.14;70.75
35519;BME280;21627;48.216;16.482;2023-04-05T03:55:31;100393.91;;;-2.19;71.12
35519;BME280;21627;48.216;16.482;2023-04-05T03:57:58;100399.75;;;-2.20;72.07
35519;BME280;21627;48.216;16.482;2023-04-05T04:00:25;100391.28;;;-2.20;71.96
35519;BME280;21627;48.216;16.482;2023-04-05T04:02:52;100392.84;;;-2.22;72.25
35519;BME280;21627;48.216;16.482;2023-04-05T04:05:20;100389.38;;;-2.24;72.38
35519;BME280;21627;48.216;16.482;2023-04-05T04:07:47;100391.78;;;-2.26;72.27
35519;BME280;21627;48.216;16.482;2023-04-05T04:10:16;100390.22;;;-2.24;71.51
35519;BME280;21627;48.216;16.482;2023-04-05T04:12:43;100380.78;;;-2.26;72.03
35519;BME280;21627;48.216;16.482;2023-04-05T04:15:11;100372.72;;;-2.34;72.42
35519;BME280;21627;48.216;16.482;2023-04-05T04:17:39;100383.03;;;-2.31;72.89
35519;BME280;21627;48.216;16.482;2023-04-05T04:20:07;100374.16;;;-2.37;72.56
35519;BME280;21627;48.216;16.482;2023-04-05T04:22:37;100387.91;;;-2.34;72.67
35519;BME280;21627;48.216;16.482;2023-04-05T04:25:10;100375.16;;;-2.35;72.96
35519;BME280;21627;48.216;16.482;2023-04-05T04:27:41;100370.59;;;-2.41;72.71
35519;BME280;21627;48.216;16.482;2023-04-05T04:30:11;100368.13;;;-2.40;73.36
35519;BME280;21627;48.216;16.482;2023-04-05T04:32:40;100367.19;;;-2.42;73.30
35519;BME280;21627;48.216;16.482;2023-04-05T04:35:25;100374.09;;;-2.39;73.22
35519;BME280;21627;48.216;16.482;2023-04-05T04:37:58;100367.78;;;-2.46;73.79
35519;BME280;21627;48.216;16.482;2023-04-05T04:40:34;100375.53;;;-2.43;73.83
35519;BME280;21627;48.216;16.482;2023-04-05T04:43:10;100368.25;;;-2.38;73.34
35519;BME280;21627;48.216;16.482;2023-04-05T04:45:48;100379.13;;;-2.26;72.89
35519;BME280;21627;48.216;16.482;2023-04-05T04:48:16;100383.22;;;-2.28;72.78
35519;BME280;21627;48.216;16.482;2023-04-05T04:50:45;100369.41;;;-2.33;73.63
35519;BME280;21627;48.216;16.482;2023-04-05T04:53:12;100375.53;;;-2.29;73.09
35519;BME280;21627;48.216;16.482;2023-04-05T04:55:39;100375.31;;;-2.32;73.12
35519;BME280;21627;48.216;16.482;2023-04-05T04:58:10;100369.00;;;-2.26;72.28
35519;BME280;21627;48.216;16.482;2023-04-05T05:00:42;100377.84;;;-2.19;71.77
35519;BME280;21627;48.216;16.482;2023-04-05T05:03:11;100378.22;;;-2.13;71.90
35519;BME280;21627;48.216;16.482;2023-04-05T05:05:48;100386.84;;;-2.09;71.33
35519;BME280;21627;48.216;16.482;2023-04-05T05:08:16;100378.31;;;-2.11;71.91
35519;BME280;21627;48.216;16.482;2023-04-05T05:10:50;100378.94;;;-2.01;70.89
35519;BME280;21627;48.216;16.482;2023-04-05T05:13:20;100383.78;;;-1.90;70.54
35519;BME280;21627;48.216;16.482;2023-04-05T05:15:47;100385.06;;;-1.97;71.07
35519;BME280;21627;48.216;16.482;2023-04-05T05:18:15;100374.16;;;-1.96;70.96
35519;BME280;21627;48.216;16.482;2023-04-05T05:20:42;100373.19;;;-1.98;70.81
35519;BME280;21627;48.216;16.482;2023-04-05T05:23:09;100379.88;;;-1.85;70.92
35519;BME280;21627;48.216;16.482;2023-04-05T05:25:37;100382.56;;;-1.82;70.82
35519;BME280;21627;48.216;16.482;2023-04-05T05:28:04;100375.66;;;-1.85;70.30
35519;BME280;21627;48.216;16.482;2023-04-05T05:30:32;100383.41;;;-1.68;70.41
35519;BME280;21627;48.216;16.482;2023-04-05T05:32:59;100379.19;;;-1.68;69.90
35519;BME280;21627;48.216;16.482;2023-04-05T05:35:27;100383.00;;;-1.61;69.93
35519;BME280;21627;48.216;16.482;2023-04-05T05:37:54;100379.22;;;-1.53;69.50
35519;BME280;21627;48.216;16.482;2023-04-05T05:40:21;100364.53;;;-1.59;69.47
35519;BME280;21627;48.216;16.482;2023-04-05T05:42:48;100374.78;;;-1.42;68.65
35519;BME280;21627;48.216;16.482;2023-04-05T05:45:16;100366.88;;;-1.47;69.12
35519;BME280;21627;48.216;16.482;2023-04-05T05:47:43;100375.22;;;-1.35;68.31
35519;BME280;21627;48.216;16.482;2023-04-05T05:50:10;100365.75;;;-1.22;67.73
35519;BME280;21627;48.216;16.482;2023-04-05T05:52:37;100377.16;;;-1.16;67.13
35519;BME280;21627;48.216;16.482;2023-04-05T05:55:05;100384.22;;;-1.10;67.11
35519;BME280;21627;48.216;16.482;2023-04-05T05:57:33;100383.59;;;-1.06;66.27
35519;BME280;21627;48.216;16.482;2023-04-05T06:00:00;100381.69;;;-0.95;65.68
35519;BME280;21627;48.216;16.482;2023-04-05T06:02:27;100381.25;;;-0.88;66.16
35519;BME280;21627;48.216;16.482;2023-04-05T06:04:54;100388.09;;;-0.71;65.22
35519;BME280;21627;48.216;16.482;2023-04-05T06:07:22;100387.72;;;-0.47;64.81
35519;BME280;21627;48.216;16.482;2023-04-05T06:09:49;100364.19;;;-0.43;63.78
35519;BME280;21627;48.216;16.482;2023-04-05T06:12:16;100378.22;;;-0.35;63.29
35519;BME280;21627;48.216;16.482;2023-04-05T06:14:43;100371.00;;;-0.27;62.76
35519;BME280;21627;48.216;16.482;2023-04-05T06:17:13;100379.19;;;-0.16;62.72
35519;BME280;21627;48.216;16.482;2023-04-05T06:19:40;100376.22;;;-0.08;62.31
35519;BME280;21627;48.216;16.482;2023-04-05T06:22:07;100390.41;;;0.04;62.67
35519;BME280;21627;48.216;16.482;2023-04-05T06:24:34;100385.63;;;0.26;62.07
35519;BME280;21627;48.216;16.482;2023-04-05T06:27:01;100399.59;;;0.34;61.02
35519;BME280;21627;48.216;16.482;2023-04-05T06:29:29;100383.63;;;0.37;61.66
35519;BME280;21627;48.216;16.482;2023-04-05T06:31:57;100390.47;;;0.72;60.31
35519;BME280;21627;48.216;16.482;2023-04-05T06:34:24;100395.56;;;0.72;59.26
35519;BME280;21627;48.216;16.482;2023-04-05T06:36:51;100389.69;;;0.73;58.78
35519;BME280;21627;48.216;16.482;2023-04-05T06:39:18;100397.13;;;0.86;60.08
35519;BME280;21627;48.216;16.482;2023-04-05T06:41:45;100403.81;;;0.84;59.05
35519;BME280;21627;48.216;16.482;2023-04-05T06:44:13;100410.00;;;0.90;58.35
35519;BME280;21627;48.216;16.482;2023-04-05T06:46:40;100399.19;;;0.94;58.36
35519;BME280;21627;48.216;16.482;2023-04-05T06:49:07;100396.06;;;0.99;58.22
35519;BME280;21627;48.216;16.482;2023-04-05T06:51:34;100410.84;;;1.06;57.86
35519;BME280;21627;48.216;16.482;2023-04-05T06:54:01;100402.16;;;1.03;57.99
35519;BME280;21627;48.216;16.482;2023-04-05T06:56:28;100406.03;;;1.13;57.68
35519;BME280;21627;48.216;16.482;2023-04-05T06:58:55;100406.25;;;1.17;57.97
35519;BME280;21627;48.216;16.482;2023-04-05T07:01:25;100391.94;;;1.19;58.27
35519;BME280;21627;48.216;16.482;2023-04-05T07:03:53;100387.94;;;1.24;56.52
35519;BME280;21627;48.216;16.482;2023-04-05T07:06:20;100399.34;;;1.33;57.28
35519;BME280;21627;48.216;16.482;2023-04-05T07:08:49;100405.84;;;1.44;57.42
35519;BME280;21627;48.216;16.482;2023-04-05T07:11:17;100401.22;;;1.55;56.30
35519;BME280;21627;48.216;16.482;2023-04-05T07:13:44;100396.97;;;1.73;56.13
35519;BME280;21627;48.216;16.482;2023-04-05T07:16:11;100387.22;;;1.82;54.78
35519;BME280;21627;48.216;16.482;2023-04-05T07:18:39;100394.06;;;2.03;55.34
35519;BME280;21627;48.216;16.482;2023-04-05T07:21:06;100397.38;;;2.20;55.77
35519;BME280;21627;48.216;16.482;2023-04-05T07:23:33;100391.88;;;2.30;55.99
35519;BME280;21627;48.216;16.482;2023-04-05T07:26:02;100390.22;;;2.51;55.37
35519;BME280;21627;48.216;16.482;2023-04-05T07:28:31;100384.03;;;2.66;53.89
35519;BME280;21627;48.216;16.482;2023-04-05T07:31:03;100396.78;;;2.87;52.47
35519;BME280;21627;48.216;16.482;2023-04-05T07:33:31;100387.41;;;3.07;52.06
35519;BME280;21627;48.216;16.482;2023-04-05T07:35:58;100392.31;;;3.23;52.45
35519;BME280;21627;48.216;16.482;2023-04-05T07:38:26;100381.13;;;3.42;51.17
35519;BME280;21627;48.216;16.482;2023-04-05T07:40:55;100392.38;;;3.68;50.87
35519;BME280;21627;48.216;16.482;2023-04-05T07:43:22;100395.03;;;3.71;49.98
35519;BME280;21627;48.216;16.482;2023-04-05T07:45:51;100384.22;;;3.78;49.54
35519;BME280;21627;48.216;16.482;2023-04-05T07:48:19;100391.53;;;3.92;50.48
35519;BME280;21627;48.216;16.482;2023-04-05T07:50:47;100396.34;;;4.30;50.11
35519;BME280;21627;48.216;16.482;2023-04-05T07:53:14;100397.38;;;4.36;48.23
35519;BME280;21627;48.216;16.482;2023-04-05T07:55:42;100391.34;;;4.33;47.92
35519;BME280;21627;48.216;16.482;2023-04-05T07:58:09;100396.66;;;4.64;48.29
35519;BME280;21627;48.216;16.482;2023-04-05T08:00:37;100388.25;;;4.68;45.73
35519;BME280;21627;48.216;16.482;2023-04-05T08:03:05;100390.00;;;4.69;46.59
35519;BME280;21627;48.216;16.482;2023-04-05T08:05:32;100392.91;;;4.80;46.14
35519;BME280;21627;48.216;16.482;2023-04-05T08:07:59;100387.06;;;4.84;45.98
35519;BME280;21627;48.216;16.482;2023-04-05T08:10:26;100378.66;;;4.88;45.87
35519;BME280;21627;48.216;16.482;2023-04-05T08:12:53;100371.22;;;4.95;45.68
35519;BME280;21627;48.216;16.482;2023-04-05T08:15:20;100382.81;;;5.10;45.45
35519;BME280;21627;48.216;16.482;2023-04-05T08:17:48;100363.34;;;5.16;45.73
35519;BME280;21627;48.216;16.482;2023-04-05T08:20:15;100361.53;;;5.41;46.10
35519;BME280;21627;48.216;16.482;2023-04-05T08:22:42;100359.00;;;5.70;45.71
35519;BME280;21627;48.216;16.482;2023-04-05T08:25:09;100365.59;;;5.92;44.98
35519;BME280;21627;48.216;16.482;2023-04-05T08:27:36;100359.63;;;6.21;45.05
35519;BME280;21627;48.216;16.482;2023-04-05T08:30:04;100354.69;;;6.27;44.32
35519;BME280;21627;48.216;16.482;2023-04-05T08:32:33;100359.22;;;6.38;44.03
35519;BME280;21627;48.216;16.482;2023-04-05T08:35:00;100361.41;;;6.56;44.07
35519;BME280;21627;48.216;16.482;2023-04-05T08:37:27;100349.50;;;6.59;43.75
35519;BME280;21627;48.216;16.482;2023-04-05T08:39:57;100344.34;;;6.59;43.60
35519;BME280;21627;48.216;16.482;2023-04-05T08:42:33;100347.91;;;6.64;43.18
35519;BME280;21627;48.216;16.482;2023-04-05T08:45:03;100343.88;;;6.74;42.32
35519;BME280;21627;48.216;16.482;2023-04-05T08:47:31;100345.78;;;6.83;42.89
35519;BME280;21627;48.216;16.482;2023-04-05T08:50:02;100337.06;;;7.11;43.83
35519;BME280;21627;48.216;16.482;2023-04-05T08:52:31;100331.38;;;6.88;41.84
35519;BME280;21627;48.216;16.482;2023-04-05T08:54:59;100323.94;;;7.00;43.14
35519;BME280;21627;48.216;16.482;2023-04-05T08:57:28;100334.03;;;7.29;43.19
35519;BME280;21627;48.216;16.482;2023-04-05T08:59:58;100321.56;;;7.47;43.13
35519;BME280;21627;48.216;16.482;2023-04-05T09:02:27;100328.81;;;7.65;41.53
35519;BME280;21627;48.216;16.482;2023-04-05T09:04:55;100315.50;;;7.85;42.55
35519;BME280;21627;48.216;16.482;2023-04-05T09:07:25;100325.63;;;8.19;40.62
35519;BME280;21627;48.216;16.482;2023-04-05T09:09:57;100327.78;;;8.43;40.63
35519;BME280;21627;48.216;16.482;2023-04-05T09:12:27;100328.91;;;8.58;39.26
35519;BME280;21627;48.216;16.482;2023-04-05T09:14:55;100327.53;;;8.30;38.93
35519;BME280;21627;48.216;16.482;2023-04-05T09:17:23;100328.66;;;8.44;39.31
35519;BME280;21627;48.216;16.482;2023-04-05T09:19:50;100329.97;;;8.22;39.62
35519;BME280;21627;48.216;16.482;2023-04-05T09:22:18;100333.75;;;8.41;40.00
35519;BME280;21627;48.216;16.482;2023-04-05T09:24:48;100323.97;;;8.72;39.83
35519;BME280;21627;48.216;16.482;2023-04-05T09:27:18;100314.06;;;8.96;38.95
35519;BME280;21627;48.216;16.482;2023-04-05T09:29:47;100303.63;;;8.88;39.06
35519;BME280;21627;48.216;16.482;2023-04-05T09:32:16;100310.25;;;8.73;38.96
35519;BME280;21627;48.216;16.482;2023-04-05T09:34:45;100311.97;;;8.74;39.37
35519;BME280;21627;48.216;16.482;2023-04-05T09:37:20;100310.84;;;9.11;39.16
35519;BME280;21627;48.216;16.482;2023-04-05T09:39:49;100301.56;;;9.24;37.84
35519;BME280;21627;48.216;16.482;2023-04-05T09:42:20;100300.13;;;9.43;37.87
35519;BME280;21627;48.216;16.482;2023-04-05T09:44:56;100299.13;;;9.33;37.70
35519;BME280;21627;48.216;16.482;2023-04-05T09:47:26;100293.28;;;9.46;37.42
35519;BME280;21627;48.216;16.482;2023-04-05T09:49:58;100291.06;;;9.77;36.84
35519;BME280;21627;48.216;16.482;2023-04-05T09:52:30;100287.00;;;9.96;36.79
35519;BME280;21627;48.216;16.482;2023-04-05T09:55:01;100282.00;;;10.13;37.01
35519;BME280;21627;48.216;16.482;2023-04-05T09:57:36;100274.44;;;10.28;36.31
35519;BME280;21627;48.216;16.482;2023-04-05T10:00:06;100281.56;;;10.55;35.64
35519;BME280;21627;48.216;16.482;2023-04-05T10:02:42;100279.75;;;10.45;34.65
35519;BME280;21627;48.216;16.482;2023-04-05T10:05:11;100269.19;;;10.25;34.74
35519;BME280;21627;48.216;16.482;2023-04-05T10:07:40;100261.75;;;9.72;34.38
35519;BME280;21627;48.216;16.482;2023-04-05T10:10:09;100271.28;;;9.76;34.55
35519;BME280;21627;48.216;16.482;2023-04-05T10:12:39;100259.94;;;9.65;34.41
35519;BME280;21627;48.216;16.482;2023-04-05T10:15:09;100262.28;;;9.45;34.72
35519;BME280;21627;48.216;16.482;2023-04-05T10:17:46;100261.00;;;9.14;34.10
35519;BME280;21627;48.216;16.482;2023-04-05T10:20:24;100248.88;;;9.05;35.07
35519;BME280;21627;48.216;16.482;2023-04-05T10:28:35;100254.53;;;9.45;34.36
35519;BME280;21627;48.216;16.482;2023-04-05T10:31:32;100245.38;;;9.70;34.14
35519;BME280;21627;48.216;16.482;2023-04-05T10:34:10;100242.75;;;9.65;34.26
35519;BME280;21627;48.216;16.482;2023-04-05T10:36:50;100250.22;;;9.44;33.98
35519;BME280;21627;48.216;16.482;2023-04-05T10:42:12;100241.78;;;9.57;35.00
35519;BME280;21627;48.216;16.482;2023-04-05T10:44:40;100249.13;;;10.00;33.02
35519;BME280;21627;48.216;16.482;2023-04-05T10:47:13;100240.72;;;10.19;34.33
35519;BME280;21627;48.216;16.482;2023-04-05T10:49:46;100248.31;;;10.05;32.05
35519;BME280;21627;48.216;16.482;2023-04-05T10:52:16;100235.50;;;9.35;33.17
35519;BME280;21627;48.216;16.482;2023-04-05T10:54:44;100256.09;;;9.32;33.72
35519;BME280;21627;48.216;16.482;2023-04-05T10:57:11;100232.81;;;9.26;33.93
35519;BME280;21627;48.216;16.482;2023-04-05T10:59:44;100234.06;;;9.59;33.24
35519;BME280;21627;48.216;16.482;2023-04-05T11:02:13;100234.00;;;9.54;33.51
35519;BME280;21627;48.216;16.482;2023-04-05T11:04:40;100232.69;;;9.88;34.71
35519;BME280;21627;48.216;16.482;2023-04-05T11:07:17;100228.00;;;10.39;32.78
35519;BME280;21627;48.216;16.482;2023-04-05T11:12:18;100217.13;;;10.81;32.11
35519;BME280;21627;48.216;16.482;2023-04-05T11:14:45;100223.47;;;11.37;31.75
35519;BME280;21627;48.216;16.482;2023-04-05T11:17:26;100218.41;;;11.69;30.10
35519;BME280;21627;48.216;16.482;2023-04-05T11:20:04;100214.72;;;11.12;31.34
35519;BME280;21627;48.216;16.482;2023-04-05T11:22:32;100211.19;;;10.99;31.47
35519;BME280;21627;48.216;16.482;2023-04-05T11:25:01;100213.56;;;10.66;31.02
35519;BME280;21627;48.216;16.482;2023-04-05T11:27:31;100215.78;;;10.21;33.54
35519;BME280;21627;48.216;16.482;2023-04-05T11:30:00;100218.13;;;9.96;32.82
35519;BME280;21627;48.216;16.482;2023-04-05T11:32:46;100203.13;;;9.65;33.28
35519;BME280;21627;48.216;16.482;2023-04-05T11:35:17;100211.03;;;9.80;34.30
35519;BME280;21627;48.216;16.482;2023-04-05T11:40:36;100210.25;;;9.84;34.52
35519;BME280;21627;48.216;16.482;2023-04-05T11:43:10;100211.19;;;9.91;33.97
35519;BME280;21627;48.216;16.482;2023-04-05T11:45:39;100201.38;;;10.49;34.00
35519;BME280;21627;48.216;16.482;2023-04-05T11:48:11;100206.91;;;11.04;33.88
35519;BME280;21627;48.216;16.482;2023-04-05T11:50:40;100207.03;;;11.29;32.91
35519;BME280;21627;48.216;16.482;2023-04-05T11:53:16;100207.91;;;11.36;31.80
35519;BME280;21627;48.216;16.482;2023-04-05T11:55:46;100200.28;;;11.77;30.27
35519;BME280;21627;48.216;16.482;2023-04-05T11:58:16;100192.56;;;11.99;29.63
35519;BME280;21627;48.216;16.482;2023-04-05T12:00:45;100191.72;;;12.06;32.05
35519;BME280;21627;48.216;16.482;2023-04-05T12:03:14;100198.63;;;12.13;31.54
35519;BME280;21627;48.216;16.482;2023-04-05T12:05:46;100190.84;;;12.65;31.76
35519;BME280;21627;48.216;16.482;2023-04-05T12:08:14;100190.75;;;13.08;30.55
35519;BME280;21627;48.216;16.482;2023-04-05T12:10:41;100181.94;;;13.48;30.10
35519;BME280;21627;48.216;16.482;2023-04-05T12:13:09;100186.94;;;13.86;29.19
35519;BME280;21627;48.216;16.482;2023-04-05T12:15:38;100176.66;;;13.64;29.47
35519;BME280;21627;48.216;16.482;2023-04-05T12:18:12;100177.47;;;13.79;28.73
35519;BME280;21627;48.216;16.482;2023-04-05T12:20:41;100177.22;;;14.08;28.00
35519;BME280;21627;48.216;16.482;2023-04-05T12:23:11;100169.97;;;14.50;27.42
35519;BME280;21627;48.216;16.482;2023-04-05T12:25:39;100170.88;;;14.44;27.14
35519;BME280;21627;48.216;16.482;2023-04-05T12:28:08;100163.06;;;14.44;26.23
35519;BME280;21627;48.216;16.482;2023-04-05T12:30:51;100160.97;;;13.80;26.78
35519;BME280;21627;48.216;16.482;2023-04-05T12:33:30;100161.31;;;13.09;27.45
35519;BME280;21627;48.216;16.482;2023-04-05T12:36:04;100166.31;;;13.55;27.30
35519;BME280;21627;48.216;16.482;2023-04-05T12:38:32;100150.72;;;13.57;28.86
35519;BME280;21627;48.216;16.482;2023-04-05T12:41:01;100152.16;;;14.02;27.91
35519;BME280;21627;48.216;16.482;2023-04-05T12:43:42;100147.97;;;13.81;27.32
35519;BME280;21627;48.216;16.482;2023-04-05T12:46:10;100147.13;;;13.79;28.38
35519;BME280;21627;48.216;16.482;2023-04-05T12:48:42;100148.00;;;13.75;27.95
35519;BME280;21627;48.216;16.482;2023-04-05T12:51:16;100145.19;;;14.07;27.31
35519;BME280;21627;48.216;16.482;2023-04-05T12:53:46;100140.25;;;13.68;28.50
35519;BME280;21627;48.216;16.482;2023-04-05T12:56:17;100139.25;;;13.92;27.70
35519;BME280;21627;48.216;16.482;2023-04-05T12:58:48;100133.28;;;13.74;27.89
35519;BME280;21627;48.216;16.482;2023-04-05T13:01:18;100143.03;;;13.40;27.38
35519;BME280;21627;48.216;16.482;2023-04-05T13:03:46;100140.44;;;13.35;28.32
35519;BME280;21627;48.216;16.482;2023-04-05T13:06:16;100140.44;;;13.41;28.66
35519;BME280;21627;48.216;16.482;2023-04-05T13:08:43;100140.22;;;13.77;28.65
35519;BME280;21627;48.216;16.482;2023-04-05T13:11:10;100138.69;;;13.40;27.97
35519;BME280;21627;48.216;16.482;2023-04-05T13:13:37;100141.38;;;13.28;27.25
35519;BME280;21627;48.216;16.482;2023-04-05T13:16:04;100132.00;;;12.76;28.64
35519;BME280;21627;48.216;16.482;2023-04-05T13:18:35;100137.81;;;13.45;28.46
35519;BME280;21627;48.216;16.482;2023-04-05T13:21:02;100134.38;;;13.39;26.96